ADDS METAR Data INFO
IDs: Format: Raw Decoded Include TAF

Data at: 0514 UTC 21 Feb 2018

KBPT 201453Z 14014G22KT 10SM SCT007 BKN013 23/20 A3006 RMK AO2 SLP179 T02280200 53014
KBPT 201353Z 14015KT 9SM SCT007 BKN013 22/20 A3005 RMK AO2 SLP174 T02170200
KBPT 201253Z 12010KT 7SM BKN006 OVC012 21/20 A3004 RMK AO2 SLP170 T02110200
KBPT 201153Z 14014KT 8SM BKN006 OVC010 21/20 A3002 RMK AO2 CIG 004V008 SLP166 T02110200 10217 20206 53007
KBPT 201053Z AUTO 15012KT 8SM BKN006 OVC055 21/20 A3000 RMK AO2 SLP160 T02110200
KBPT 201002Z AUTO 5SM BR OVC005 21/20 A3000 RMK AO2 CIG 004V009 T02110200
KBPT 200953Z AUTO 15016G21KT 6SM BR OVC004 21/20 A3000 RMK AO2 CIG 003V007 SLP159 T02110200
KBPT 200928Z AUTO 15013G21KT 6SM BR OVC004 21/20 A2999 RMK AO2 T02110200
KBPT 200853Z AUTO 15015G24KT 5SM BR OVC005 21/20 A3000 RMK AO2 CIG 004V008 SLP159 T02110200 58007
KBPT 200815Z AUTO 16012KT 8SM BKN008 OVC021 21/19 A3002 RMK AO2 T02060194
KBPT 200800Z AUTO 16012KT 6SM BR FEW008 FEW012 BKN021 21/19 A3002 RMK AO2 T02060194
KBPT 200753Z AUTO 15013KT 6SM BR FEW010 SCT021 21/19 A3002 RMK AO2 SLP166 T02060194
KBPT 200740Z AUTO 15015KT 7SM FEW010 SCT017 21/19 A3002 RMK AO2 T02060194
KBPT 200710Z AUTO 15016G21KT 9SM SCT010 BKN017 21/19 A3002 RMK AO2 T02110194
KBPT 200653Z AUTO 15015G26KT 9SM FEW011 SCT018 21/19 A3002 RMK AO2 PK WND 15026/0649 SLP163 T02110194
KBPT 200642Z AUTO 15015G23KT 9SM FEW011 SCT018 21/19 A3002 RMK AO2 T02110194
KBPT 200610Z AUTO 15016G22KT 8SM FEW011 BKN019 OVC065 21/19 A3002 RMK AO2 T02110194
KBPT 200553Z AUTO 15018G27KT 9SM FEW012 OVC070 22/19 A3002 RMK AO2 PK WND 15027/0545 SLP166 T02170194 10228 20217 402610189 53003
KBPT 200453Z AUTO 15014G22KT 10SM FEW070 22/19 A3002 RMK AO2 PK WND 16027/0432 SLP164 T02170194
KBPT 200353Z 15018G23KT 10SM FEW013 FEW025 BKN080 22/19 A3002 RMK AO2 PK WND 15026/0318 SLP164 T02170194
KBPT 200253Z 15016G28KT 10SM FEW027 SCT034 OVC080 22/19 A3001 RMK AO2 PK WND 14028/0247 SLP163 T02220194 53005
KBPT 200153Z 14017G23KT 10SM FEW036 SCT048 OVC085 22/19 A3000 RMK AO2 PK WND 15027/0118 SLP159 T02220194
KBPT 200053Z 14014G25KT 10SM BKN055 BKN070 OVC085 22/19 A3000 RMK AO2 PK WND 14026/0038 SLP157 T02220189
KBPT 200005Z 14016KT 10SM FEW016 BKN055 OVC070 23/19 A3000 RMK AO2 T02280194
KBPT 192353Z 14018G24KT 10SM FEW016 BKN025 OVC060 23/19 A3000 RMK AO2 PK WND 15026/2308 SLP157 T02280194 10261 20228 52000
KBPT 192253Z 15014G23KT 10SM FEW017 BKN027 OVC060 23/19 A3000 RMK AO2 PK WND 15026/2230 SLP158 T02330194
KBPT 192246Z 16019G25KT 10SM FEW017 BKN027 OVC036 23/19 A3000 RMK AO2 PK WND 15026/2230 T02330194
KBPT 192153Z AUTO 15014G23KT 10SM SCT019 BKN031 OVC075 24/19 A3000 RMK AO2 PK WND 15027/2121 SLP157 T02440194
KBPT 192053Z AUTO 17018G26KT 10SM BKN022 BKN030 BKN070 24/19 A3000 RMK AO2 PK WND 16026/2031 SLP157 T02440189 56012
KBPT 192050Z AUTO 16018G26KT 10SM BKN022 BKN070 24/19 A3000 RMK AO2 PK WND 16026/2031
KBPT 191953Z 17017G25KT 10SM SCT070 26/18 A3001 RMK AO2 PK WND 18029/1922 SLP162 T02560178
KBPT 191853Z 17017G26KT 10SM SCT025 26/17 A3003 RMK AO2 PK WND 17028/1756 SLP169 T02560172
KBPT 191753Z 16017G28KT 10SM CLR 26/17 A3006 RMK AO2 PK WND 16028/1748 SLP178 T02560172 10261 20189 58001